Time;durP1;ratioP1;P1;durP2;ratioP2;P2;SDS_P1;SDS_P2;PMS_P1;PMS_P2;Temp;Humidity;BMP_temperature;BMP_pressure;BME280_temperature;BME280_humidity;BME280_pressure;Samples;Min_cycle;Max_cycle;Signal;HPM_P1;HPM_P2
2022/12/22 03:26:02;;;;;;;2.40;2.10;;;19.60;99.90;;;;;;4206410;28;20190;-75
2022/12/22 03:28:07;;;;;;;2.08;1.88;;;19.60;99.90;;;;;;4207279;28;20608;-75
2022/12/22 03:30:10;;;;;;;2.65;2.20;;;19.60;99.90;;;;;;4197823;28;20211;-75
2022/12/22 03:32:14;;;;;;;2.72;2.13;;;19.60;99.90;;;;;;4201106;28;20264;-75
2022/12/22 03:34:16;;;;;;;2.83;2.08;;;19.60;99.90;;;;;;4200436;28;20214;-75
2022/12/22 03:36:19;;;;;;;2.92;2.00;;;19.60;99.90;;;;;;4205016;28;20215;-75
2022/12/22 03:38:21;;;;;;;2.00;1.80;;;19.60;99.90;;;;;;4199222;28;20231;-75
2022/12/22 03:40:24;;;;;;;2.67;2.20;;;19.60;99.90;;;;;;4199363;28;20224;-75
2022/12/22 03:47:06;;;;;;;3.03;2.25;;;19.60;99.90;;;;;;4200912;28;20199;-75
2022/12/22 03:49:09;;;;;;;2.55;1.95;;;19.60;99.90;;;;;;4197269;28;20647;-75
2022/12/22 03:51:12;;;;;;;2.70;2.05;;;19.50;99.90;;;;;;4202358;28;20210;-75
2022/12/22 03:53:14;;;;;;;3.15;2.22;;;19.60;99.90;;;;;;4198312;28;20629;-75
2022/12/22 03:55:16;;;;;;;2.40;2.10;;;19.50;99.90;;;;;;4206476;28;20255;-75
2022/12/22 03:57:19;;;;;;;2.45;2.15;;;19.60;99.90;;;;;;4203246;28;20657;-75
2022/12/22 03:59:21;;;;;;;2.22;1.90;;;19.50;99.90;;;;;;4204451;28;20218;-75
2022/12/22 04:01:24;;;;;;;2.22;1.63;;;19.50;99.90;;;;;;4200643;28;20269;-75
2022/12/22 04:03:28;;;;;;;2.28;1.88;;;19.50;99.90;;;;;;4201577;28;20292;-75
2022/12/22 04:05:31;;;;;;;2.30;2.10;;;19.60;99.90;;;;;;4206141;28;20281;-75
2022/12/22 04:07:34;;;;;;;2.10;1.80;;;19.50;99.90;;;;;;4206101;28;20268;-75
2022/12/22 04:12:52;;;;;;;3.03;2.10;;;19.50;99.90;;;;;;4205944;28;20696;-75
2022/12/22 04:14:18;;;;;;;2.38;1.80;;;19.50;99.90;;;;;;4204449;28;20199;-75
2022/12/22 04:16:20;;;;;;;2.83;2.03;;;19.50;99.90;;;;;;4203958;28;20647;-75
2022/12/22 04:18:23;;;;;;;2.28;1.80;;;19.50;99.90;;;;;;4205955;28;20260;-75
2022/12/22 04:20:26;;;;;;;2.40;2.00;;;19.50;99.90;;;;;;4204260;28;20211;-75
2022/12/22 04:22:30;;;;;;;2.65;2.03;;;19.50;99.90;;;;;;4205523;28;20246;-75
2022/12/22 04:24:32;;;;;;;2.30;1.83;;;19.50;99.90;;;;;;4204723;28;20214;-75
2022/12/22 04:26:35;;;;;;;2.22;1.70;;;19.50;99.90;;;;;;4202958;28;20214;-75
2022/12/22 04:28:37;;;;;;;1.98;1.60;;;19.50;99.90;;;;;;4206383;28;20227;-75
2022/12/22 04:30:40;;;;;;;2.45;1.85;;;19.50;99.90;;;;;;4204095;28;20264;-75
2022/12/22 04:32:42;;;;;;;2.03;1.70;;;19.50;99.90;;;;;;4205506;28;20214;-75
2022/12/22 04:34:45;;;;;;;2.28;1.70;;;19.50;99.90;;;;;;4208755;28;20215;-75
2022/12/22 04:36:47;;;;;;;2.17;1.92;;;19.50;99.90;;;;;;4202713;28;20211;-75
2022/12/22 04:38:51;;;;;;;2.28;1.80;;;19.50;99.90;;;;;;4206807;28;20222;-75
2022/12/22 04:40:53;;;;;;;1.98;1.83;;;19.40;99.90;;;;;;4206561;28;20612;-75
2022/12/22 04:42:56;;;;;;;2.10;1.60;;;19.50;99.90;;;;;;4201966;28;20287;-75
2022/12/22 04:44:58;;;;;;;2.00;1.80;;;19.50;99.90;;;;;;4204987;28;20268;-75
2022/12/22 04:47:00;;;;;;;2.33;1.73;;;19.50;99.90;;;;;;4200161;28;20280;-75
2022/12/22 04:49:03;;;;;;;2.28;1.67;;;19.50;99.90;;;;;;4200323;28;20219;-74
2022/12/22 04:51:05;;;;;;;2.20;1.77;;;19.50;99.90;;;;;;4203569;28;20701;-75
2022/12/22 04:53:08;;;;;;;2.90;1.90;;;19.40;99.90;;;;;;4207049;28;20215;-75
2022/12/22 04:55:12;;;;;;;1.75;1.58;;;19.50;99.90;;;;;;4198012;28;20210;-75
2022/12/22 04:57:14;;;;;;;2.35;2.00;;;19.50;99.90;;;;;;4204303;28;20300;-75
2022/12/22 04:59:17;;;;;;;2.03;1.67;;;19.50;99.90;;;;;;4202172;28;20239;-75
2022/12/22 05:01:19;;;;;;;1.65;1.55;;;19.50;99.90;;;;;;4199557;28;20265;-75
2022/12/22 05:03:21;;;;;;;3.20;1.80;;;19.50;99.90;;;;;;4207352;28;20291;-75
2022/12/22 05:05:24;;;;;;;1.98;1.48;;;19.50;99.90;;;;;;4199047;28;20215;-75
2022/12/22 05:07:26;;;;;;;2.20;1.83;;;19.50;99.90;;;;;;4202111;28;20334;-75
2022/12/22 05:09:28;;;;;;;2.00;1.80;;;19.50;99.90;;;;;;4204101;28;20210;-75
2022/12/22 05:11:32;;;;;;;1.83;1.40;;;19.50;99.90;;;;;;4209338;28;20272;-75
2022/12/22 05:13:34;;;;;;;1.70;1.50;;;19.50;99.90;;;;;;4201830;28;20211;-75
2022/12/22 05:15:39;;;;;;;1.90;1.70;;;19.50;99.90;;;;;;4205316;28;20254;-75
2022/12/22 05:17:41;;;;;;;1.92;1.73;;;19.40;99.90;;;;;;4203177;28;20207;-75
2022/12/22 05:19:44;;;;;;;1.90;1.67;;;19.40;99.90;;;;;;4200347;28;20211;-75
2022/12/22 05:21:46;;;;;;;1.95;1.80;;;19.40;99.90;;;;;;4210665;28;20218;-75
2022/12/22 05:23:49;;;;;;;1.77;1.58;;;19.40;99.90;;;;;;4208720;28;23908;-75
2022/12/22 05:25:51;;;;;;;2.58;1.83;;;19.40;99.90;;;;;;4206145;28;20344;-75
2022/12/22 05:27:55;;;;;;;1.55;1.45;;;19.40;99.90;;;;;;4204313;28;20260;-75
2022/12/22 05:29:57;;;;;;;1.55;1.45;;;19.40;99.90;;;;;;4203723;28;20348;-75
2022/12/22 05:31:59;;;;;;;2.58;1.88;;;19.40;99.90;;;;;;4205134;28;20978;-75
2022/12/22 05:34:02;;;;;;;1.73;1.58;;;19.40;99.90;;;;;;4202772;28;20207;-75
2022/12/22 05:36:05;;;;;;;2.08;1.70;;;19.40;99.90;;;;;;4201878;28;20227;-75
2022/12/22 05:38:07;;;;;;;1.80;1.55;;;19.40;99.90;;;;;;4200321;28;20219;-75
2022/12/22 05:40:11;;;;;;;1.58;1.27;;;19.40;99.90;;;;;;4202654;28;20286;-75
2022/12/22 05:42:13;;;;;;;1.95;1.50;;;19.40;99.90;;;;;;4202256;28;20203;-75
2022/12/22 05:44:17;;;;;;;2.47;1.92;;;19.40;99.90;;;;;;4202993;28;20289;-75
2022/12/22 05:46:19;;;;;;;2.28;1.92;;;19.40;99.90;;;;;;4205492;28;20600;-75
2022/12/22 05:48:22;;;;;;;2.85;1.60;;;19.30;99.90;;;;;;4202362;28;20222;-75
2022/12/22 05:50:25;;;;;;;1.63;1.40;;;19.40;99.90;;;;;;4200260;28;20222;-75
2022/12/22 05:52:27;;;;;;;1.88;1.60;;;19.40;99.90;;;;;;4202222;28;20231;-75
2022/12/22 05:54:30;;;;;;;2.13;1.77;;;19.40;99.90;;;;;;4202024;28;20265;-75
2022/12/22 05:56:32;;;;;;;1.90;1.58;;;19.30;99.90;;;;;;4205251;28;20718;-75
2022/12/22 05:58:35;;;;;;;1.85;1.55;;;19.30;99.90;;;;;;4203498;28;20262;-75
2022/12/22 06:00:39;;;;;;;3.15;1.58;;;19.30;99.90;;;;;;4209050;28;20759;-74
2022/12/22 06:02:42;;;;;;;1.67;1.45;;;19.40;99.90;;;;;;4199921;28;20215;-75
2022/12/22 06:04:44;;;;;;;2.63;1.67;;;19.30;99.90;;;;;;4203973;28;20279;-75
2022/12/22 06:06:46;;;;;;;3.00;1.67;;;19.40;99.90;;;;;;4201768;28;20207;-75
2022/12/22 06:08:48;;;;;;;3.17;1.70;;;19.40;99.90;;;;;;4203508;28;20333;-75
2022/12/22 06:10:53;;;;;;;2.47;1.73;;;19.40;99.90;;;;;;4202150;28;20206;-75
2022/12/22 06:12:55;;;;;;;1.98;1.60;;;19.40;99.90;;;;;;4203286;28;20222;-75
2022/12/22 06:14:58;;;;;;;2.22;1.77;;;19.50;99.90;;;;;;4205075;28;20215;-75
2022/12/22 06:17:02;;;;;;;2.15;1.80;;;19.50;99.90;;;;;;4203617;28;20694;-75
2022/12/22 06:19:04;;;;;;;1.77;1.58;;;19.50;99.90;;;;;;4200580;28;20223;-75
2022/12/22 06:21:07;;;;;;;2.38;1.77;;;19.50;99.90;;;;;;4202622;28;20223;-75
2022/12/22 06:23:09;;;;;;;2.00;1.80;;;19.40;99.90;;;;;;4198957;28;20261;-75
2022/12/22 06:25:12;;;;;;;1.65;1.52;;;19.40;99.90;;;;;;4205407;28;21689;-75
2022/12/22 06:27:14;;;;;;;2.63;1.70;;;19.50;99.90;;;;;;4204668;28;20272;-75
2022/12/22 06:29:16;;;;;;;1.95;1.75;;;19.40;99.90;;;;;;4202379;28;20210;-75
2022/12/22 06:31:19;;;;;;;2.33;1.95;;;19.50;99.90;;;;;;4204839;28;20219;-75
2022/12/22 06:33:23;;;;;;;2.28;1.80;;;19.50;99.90;;;;;;4197524;28;20215;-75
2022/12/22 06:35:25;;;;;;;1.70;1.60;;;19.50;99.90;;;;;;4197769;28;20273;-75
2022/12/22 06:37:27;;;;;;;2.58;1.95;;;19.40;99.90;;;;;;4200770;28;20219;-75
2022/12/22 06:39:30;;;;;;;2.08;1.67;;;19.50;99.90;;;;;;4204055;28;20223;-75
2022/12/22 06:43:52;;;;;;;2.20;1.88;;;19.60;99.90;;;;;;4200675;28;20671;-75
2022/12/22 06:45:54;;;;;;;1.95;1.75;;;19.50;99.90;;;;;;4200735;28;20214;-75
2022/12/22 06:47:57;;;;;;;2.75;1.83;;;19.60;99.90;;;;;;4206914;28;20307;-75
2022/12/22 06:50:00;;;;;;;2.47;1.88;;;19.60;99.90;;;;;;4204812;28;20308;-75
2022/12/22 06:52:03;;;;;;;2.40;1.77;;;19.60;99.90;;;;;;4201993;28;20222;-75
2022/12/22 06:54:05;;;;;;;2.75;2.25;;;19.60;99.90;;;;;;4201166;28;20574;-75
2022/12/22 06:56:08;;;;;;;2.10;1.90;;;19.60;99.90;;;;;;4205426;28;20214;-75
2022/12/22 06:58:10;;;;;;;1.70;1.60;;;19.70;99.90;;;;;;4201249;28;20215;-75
2022/12/22 07:00:14;;;;;;;1.88;1.67;;;19.70;99.90;;;;;;4204002;28;20275;-75
2022/12/22 07:02:16;;;;;;;1.90;1.73;;;19.70;99.90;;;;;;4204389;28;20210;-75
2022/12/22 07:04:20;;;;;;;3.00;1.90;;;19.70;99.90;;;;;;4203555;28;20354;-75
2022/12/22 07:06:24;;;;;;;2.50;2.30;;;19.80;99.90;;;;;;4206069;28;20745;-75
2022/12/22 07:08:26;;;;;;;2.50;2.13;;;19.80;99.90;;;;;;4203154;28;20628;-74
2022/12/22 07:12:44;;;;;;;2.30;1.95;;;19.80;99.90;;;;;;4203052;28;20210;-75
2022/12/22 07:14:47;;;;;;;2.53;2.20;;;19.80;99.90;;;;;;4200195;28;20219;-75
2022/12/22 07:16:49;;;;;;;1.92;1.77;;;19.80;99.90;;;;;;4200752;28;20208;-75
2022/12/22 07:18:51;;;;;;;2.10;1.90;;;19.80;99.90;;;;;;4201027;28;20206;-75
2022/12/22 07:20:54;;;;;;;2.42;2.00;;;19.90;99.90;;;;;;4198562;28;20270;-75
2022/12/22 07:22:58;;;;;;;2.00;1.80;;;19.90;99.90;;;;;;4199636;28;20214;-75
2022/12/22 07:25:00;;;;;;;2.17;1.92;;;19.90;99.90;;;;;;4200225;28;20242;-75
2022/12/22 07:27:02;;;;;;;2.25;1.85;;;19.90;99.90;;;;;;4199753;28;20693;-75
2022/12/22 07:29:05;;;;;;;2.00;1.80;;;19.90;99.90;;;;;;4196291;28;20215;-75
2022/12/22 07:31:08;;;;;;;2.17;1.98;;;20.00;99.90;;;;;;4200578;28;20241;-75
2022/12/22 07:33:10;;;;;;;2.22;1.95;;;19.90;99.90;;;;;;4200947;28;20320;-74
2022/12/22 07:35:13;;;;;;;2.25;1.77;;;20.00;99.90;;;;;;4197289;28;20226;-75
2022/12/22 07:37:15;;;;;;;2.30;2.10;;;20.00;99.90;;;;;;4200638;28;20211;-75
2022/12/22 07:39:19;;;;;;;2.45;1.95;;;20.00;99.90;;;;;;4201840;28;20632;-75
2022/12/22 07:43:43;;;;;;;2.08;1.88;;;20.00;99.90;;;;;;4180039;28;20277;-75
2022/12/22 07:45:46;;;;;;;1.92;1.73;;;20.00;99.90;;;;;;4206011;28;20251;-75
2022/12/22 07:47:49;;;;;;;2.15;1.90;;;20.00;99.90;;;;;;4198592;28;20264;-75
2022/12/22 07:52:11;;;;;;;2.13;1.73;;;20.00;99.90;;;;;;4205279;28;20214;-76
2022/12/22 07:54:15;;;;;;;1.98;1.60;;;20.00;99.90;;;;;;4210434;28;20280;-75
2022/12/22 07:56:18;;;;;;;2.20;2.00;;;20.10;99.90;;;;;;4206840;28;20624;-76
2022/12/22 07:58:21;;;;;;;1.98;1.70;;;20.10;99.90;;;;;;4210635;28;20206;-75
2022/12/22 08:00:24;;;;;;;2.15;1.77;;;20.00;99.90;;;;;;4204110;28;20272;-76
2022/12/22 08:02:28;;;;;;;2.00;1.80;;;20.00;99.90;;;;;;4208101;28;20247;-76
2022/12/22 08:04:33;;;;;;;2.08;1.80;;;20.00;99.90;;;;;;4203313;28;20230;-76
2022/12/22 08:06:36;;;;;;;1.85;1.70;;;20.10;99.90;;;;;;4201134;28;20260;-76
2022/12/22 08:08:38;;;;;;;2.10;1.90;;;20.10;99.90;;;;;;4207248;28;20218;-76
2022/12/22 08:10:40;;;;;;;1.80;1.60;;;20.10;99.90;;;;;;4203833;28;20302;-75
2022/12/22 08:12:44;;;;;;;2.55;1.92;;;20.20;99.90;;;;;;4204817;28;20218;-76
2022/12/22 08:14:47;;;;;;;2.97;1.75;;;20.20;99.90;;;;;;4203348;28;20215;-76
2022/12/22 08:16:49;;;;;;;4.25;2.47;;;20.10;99.90;;;;;;4206820;28;20211;-75
2022/12/22 08:18:51;;;;;;;3.45;1.88;;;20.20;99.90;;;;;;4200281;28;20292;-73
2022/12/22 08:20:54;;;;;;;3.58;2.30;;;20.20;99.90;;;;;;4203465;28;20276;-72
2022/12/22 08:22:57;;;;;;;2.90;2.70;;;20.10;99.90;;;;;;4204839;28;20613;-72
2022/12/22 08:24:59;;;;;;;2.35;2.13;;;20.20;99.90;;;;;;4200164;28;20234;-73
2022/12/22 08:27:04;;;;;;;2.92;2.30;;;20.20;99.90;;;;;;4206112;28;20557;-72
2022/12/22 08:29:12;;;;;;;2.20;2.00;;;20.20;99.90;;;;;;4206262;28;20211;-74
2022/12/22 08:31:15;;;;;;;2.63;2.10;;;20.30;99.90;;;;;;4204037;28;20218;-73
2022/12/22 08:33:17;;;;;;;2.00;1.80;;;20.30;99.90;;;;;;4211140;28;20923;-73
2022/12/22 08:35:20;;;;;;;4.03;1.90;;;20.30;99.90;;;;;;4205859;28;20206;-73
2022/12/22 08:37:27;;;;;;;2.83;2.40;;;20.30;99.90;;;;;;4194374;28;20218;-73
2022/12/22 08:39:32;;;;;;;3.92;1.90;;;20.30;99.90;;;;;;4194065;28;20728;-74
2022/12/22 08:41:51;;;;;;;2.30;1.90;;;20.30;99.90;;;;;;4201294;28;20278;-73
2022/12/22 08:43:53;;;;;;;2.97;2.15;;;20.40;99.90;;;;;;4202010;28;20210;-73
2022/12/22 08:45:57;;;;;;;2.00;1.80;;;20.40;99.90;;;;;;4205475;28;20249;-73
2022/12/22 08:47:59;;;;;;;2.50;2.10;;;20.40;99.90;;;;;;4199628;28;20724;-73
2022/12/22 08:50:01;;;;;;;2.70;2.08;;;20.50;99.90;;;;;;4205804;28;20249;-73
2022/12/22 08:52:04;;;;;;;2.55;1.90;;;20.50;99.90;;;;;;4200017;28;20271;-73
2022/12/22 08:54:07;;;;;;;2.53;2.10;;;20.50;99.90;;;;;;4203037;28;20214;-73
2022/12/22 08:56:09;;;;;;;4.65;2.10;;;20.50;99.90;;;;;;4202825;28;20218;-74
2022/12/22 08:58:11;;;;;;;3.70;2.20;;;20.50;99.90;;;;;;4200375;28;20236;-73
2022/12/22 09:00:15;;;;;;;2.88;2.30;;;20.50;99.90;;;;;;4205891;28;20226;-74
2022/12/22 09:02:19;;;;;;;2.88;1.90;;;20.50;99.90;;;;;;4208028;28;20211;-72
2022/12/22 09:04:24;;;;;;;3.83;2.33;;;20.60;99.90;;;;;;4205977;28;20252;-73
2022/12/22 09:06:27;;;;;;;2.38;1.98;;;20.50;99.90;;;;;;4198512;28;20288;-74
2022/12/22 09:08:29;;;;;;;2.60;1.98;;;20.60;99.90;;;;;;4207213;28;20214;-72
2022/12/22 09:10:31;;;;;;;2.70;2.38;;;20.60;99.90;;;;;;4197612;28;20216;-72
2022/12/22 09:12:34;;;;;;;3.97;2.30;;;20.70;99.90;;;;;;4206386;28;20259;-72
2022/12/22 09:14:36;;;;;;;2.53;1.90;;;20.70;99.90;;;;;;4203681;28;20285;-73
2022/12/22 09:16:39;;;;;;;2.42;1.80;;;20.70;99.90;;;;;;4202171;28;20268;-73
2022/12/22 09:18:43;;;;;;;2.28;1.98;;;20.70;99.90;;;;;;4201688;28;20222;-72
2022/12/22 09:20:45;;;;;;;4.28;2.25;;;20.70;99.90;;;;;;4199640;28;20223;-73
2022/12/22 09:22:48;;;;;;;3.25;1.75;;;20.70;99.90;;;;;;4196621;28;20264;-73
2022/12/22 09:24:50;;;;;;;4.20;1.92;;;20.70;99.90;;;;;;4202109;28;20218;-72
2022/12/22 09:26:52;;;;;;;2.60;1.88;;;20.70;99.90;;;;;;4203875;28;20608;-72
2022/12/22 09:28:56;;;;;;;2.33;1.70;;;20.80;99.90;;;;;;4200707;28;20219;-71
2022/12/22 09:30:58;;;;;;;1.80;1.52;;;20.80;99.90;;;;;;4199615;28;20732;-72
2022/12/22 09:33:00;;;;;;;2.40;1.90;;;20.80;99.90;;;;;;4197886;28;20255;-72
2022/12/22 09:35:05;;;;;;;2.30;1.65;;;20.80;99.90;;;;;;4205298;28;20215;-72
2022/12/22 09:37:07;;;;;;;2.15;1.90;;;20.80;99.90;;;;;;4200960;28;20320;-73
2022/12/22 09:39:10;;;;;;;2.42;1.70;;;20.80;99.90;;;;;;4201916;28;20223;-74
2022/12/22 09:41:17;;;;;;;2.65;1.75;;;20.80;99.90;;;;;;4202637;28;20271;-73
2022/12/22 09:43:28;;;;;;;3.85;1.63;;;20.90;99.90;;;;;;4203960;28;20282;-72
2022/12/22 09:45:32;;;;;;;1.88;1.65;;;20.90;99.90;;;;;;4201875;28;20225;-73
2022/12/22 09:47:39;;;;;;;2.08;1.52;;;20.90;99.90;;;;;;4202460;28;20211;-72
2022/12/22 09:49:41;;;;;;;3.80;1.60;;;20.90;99.90;;;;;;4204101;28;20218;-70
2022/12/22 09:51:49;;;;;;;2.47;1.80;;;20.90;99.90;;;;;;4201893;28;20230;-69
2022/12/22 09:53:55;;;;;;;2.35;1.80;;;20.90;99.90;;;;;;4193757;28;20259;-71
2022/12/22 09:55:57;;;;;;;2.20;1.77;;;21.00;99.90;;;;;;4200888;28;20222;-70
2022/12/22 09:58:00;;;;;;;1.80;1.48;;;21.00;99.90;;;;;;4195802;28;20364;-70
2022/12/22 10:00:11;;;;;;;2.05;1.40;;;21.00;99.90;;;;;;4199832;28;20214;-71
2022/12/22 10:02:25;;;;;;;2.25;1.77;;;21.00;99.90;;;;;;4200497;28;20215;-70
2022/12/22 10:04:45;;;;;;;3.25;1.98;;;21.10;99.90;;;;;;4203860;28;20210;-70
2022/12/22 10:06:58;;;;;;;1.55;1.30;;;21.10;99.90;;;;;;4202974;28;20299;-70
2022/12/22 10:09:04;;;;;;;2.10;1.80;;;21.10;99.90;;;;;;4200332;28;20287;-70
2022/12/22 10:11:12;;;;;;;2.72;1.70;;;21.10;99.90;;;;;;4205600;28;20210;-70
2022/12/22 10:13:18;;;;;;;2.25;1.70;;;21.20;99.90;;;;;;4202063;28;20213;-72
2022/12/22 10:15:20;;;;;;;2.10;1.40;;;21.20;99.90;;;;;;4202978;28;20206;-71
2022/12/22 10:17:26;;;;;;;2.08;1.60;;;21.20;99.90;;;;;;4205102;28;20264;-71
2022/12/22 10:19:29;;;;;;;2.30;1.40;;;21.20;99.90;;;;;;4206078;28;20206;-71
2022/12/22 10:21:31;;;;;;;2.15;1.60;;;21.20;99.90;;;;;;4198846;28;20259;-72
2022/12/22 10:23:38;;;;;;;3.40;1.80;;;21.20;99.90;;;;;;4199687;28;20211;-71
2022/12/22 10:25:49;;;;;;;3.03;1.98;;;21.30;99.90;;;;;;4201150;28;20243;-71
2022/12/22 10:27:51;;;;;;;2.38;1.80;;;21.20;99.90;;;;;;4199613;28;20670;-69
2022/12/22 10:29:53;;;;;;;1.95;1.67;;;21.30;99.90;;;;;;4201816;28;20223;-70
2022/12/22 10:31:59;;;;;;;2.10;1.80;;;21.30;99.90;;;;;;4201047;28;20223;-68
2022/12/22 10:34:12;;;;;;;3.00;1.70;;;21.30;99.90;;;;;;4199804;28;20214;-69
2022/12/22 10:36:19;;;;;;;2.88;1.98;;;21.30;99.90;;;;;;4199249;28;20219;-68
2022/12/22 10:38:25;;;;;;;2.38;1.67;;;21.40;99.90;;;;;;4199351;28;20269;-70
2022/12/22 10:40:31;;;;;;;2.78;1.80;;;21.40;99.90;;;;;;4203071;28;20219;-70
2022/12/22 10:42:35;;;;;;;1.77;1.60;;;21.40;99.90;;;;;;4203078;28;20207;-71
2022/12/22 10:44:39;;;;;;;2.47;1.80;;;21.40;99.90;;;;;;4199606;28;20806;-71
2022/12/22 10:46:46;;;;;;;3.35;1.70;;;21.40;99.90;;;;;;4201230;28;20327;-70
2022/12/22 10:48:48;;;;;;;1.60;1.30;;;21.40;99.90;;;;;;4201946;28;20363;-69
2022/12/22 10:50:51;;;;;;;2.10;1.65;;;21.40;99.90;;;;;;4201404;28;20215;-69
2022/12/22 10:52:55;;;;;;;2.53;1.75;;;21.40;99.90;;;;;;4202947;28;20263;-69
2022/12/22 10:55:16;;;;;;;1.42;1.33;;;21.50;99.90;;;;;;4204615;28;20260;-69
2022/12/22 10:57:29;;;;;;;2.17;1.60;;;21.40;99.90;;;;;;4200825;28;20734;-70
2022/12/22 10:59:32;;;;;;;4.18;1.55;;;21.40;99.90;;;;;;4200105;28;20264;-69
2022/12/22 11:01:36;;;;;;;2.90;1.70;;;21.40;99.90;;;;;;4202820;28;20218;-70
2022/12/22 11:03:39;;;;;;;1.83;1.30;;;21.50;99.90;;;;;;4203873;28;20678;-70
2022/12/22 11:05:43;;;;;;;3.53;1.65;;;21.50;99.90;;;;;;4198187;28;20627;-69
2022/12/22 11:07:47;;;;;;;1.60;1.50;;;21.50;99.90;;;;;;4195200;28;20281;-72
2022/12/22 11:09:49;;;;;;;2.22;1.63;;;21.50;99.90;;;;;;4201686;28;20215;-72
2022/12/22 11:11:56;;;;;;;2.53;1.58;;;21.60;99.90;;;;;;4203191;28;20271;-71
2022/12/22 11:14:12;;;;;;;2.45;1.60;;;21.50;99.90;;;;;;4202587;28;20221;-71
2022/12/22 11:16:21;;;;;;;1.95;1.23;;;21.50;99.90;;;;;;4202874;28;20263;-71
2022/12/22 11:18:36;;;;;;;2.78;1.77;;;21.60;99.90;;;;;;4202080;28;20214;-71
2022/12/22 11:20:49;;;;;;;4.13;1.60;;;21.60;99.90;;;;;;4207553;28;20283;-73
2022/12/22 11:23:00;;;;;;;4.93;1.60;;;21.60;99.90;;;;;;4207068;28;20267;-72
2022/12/22 11:25:24;;;;;;;2.28;1.55;;;21.70;99.90;;;;;;4208193;28;20231;-77
2022/12/22 11:27:39;;;;;;;1.98;1.58;;;21.60;99.90;;;;;;4205353;28;20648;-72
2022/12/22 11:30:02;;;;;;;2.53;1.73;;;21.70;99.90;;;;;;4206192;28;20211;-71
2022/12/22 11:32:22;;;;;;;3.45;1.38;;;21.70;99.90;;;;;;4210548;28;20214;-72
2022/12/22 11:34:49;;;;;;;2.05;1.50;;;21.70;99.90;;;;;;4206259;28;20248;-71
2022/12/22 11:37:04;;;;;;;2.25;1.70;;;21.80;99.90;;;;;;4204733;28;20252;-71
2022/12/22 11:39:13;;;;;;;2.40;1.50;;;21.80;99.90;;;;;;4202934;28;20219;-71
2022/12/22 11:41:31;;;;;;;4.80;1.35;;;21.80;99.90;;;;;;4205916;28;20767;-73
2022/12/22 11:43:46;;;;;;;4.38;1.20;;;21.80;99.90;;;;;;4206348;28;20215;-72
2022/12/22 11:46:19;;;;;;;2.22;1.42;;;21.80;99.90;;;;;;4204635;28;20215;-73
2022/12/22 11:49:09;;;;;;;2.58;1.40;;;21.90;99.90;;;;;;4202929;28;20267;-73
2022/12/22 11:51:20;;;;;;;3.75;1.60;;;21.80;99.90;;;;;;4108569;28;20221;-76
2022/12/22 11:53:57;;;;;;;2.50;1.48;;;21.90;99.90;;;;;;4148070;28;20208;-78
2022/12/22 11:56:16;;;;;;;3.53;1.20;;;21.90;99.90;;;;;;4172797;28;20670;-77
2022/12/22 11:58:41;;;;;;;2.35;1.42;;;21.90;99.90;;;;;;4200201;28;20762;-76
2022/12/22 12:00:54;;;;;;;3.08;1.50;;;21.90;99.90;;;;;;4202340;28;20558;-76
2022/12/22 12:03:49;;;;;;;3.83;1.60;;;21.90;99.90;;;;;;4205214;28;20279;-77
2022/12/22 12:06:20;;;;;;;2.47;1.58;;;22.00;99.90;;;;;;4132637;28;20276;-75
2022/12/22 12:08:30;;;;;;;2.30;1.40;;;22.00;99.90;;;;;;4111102;28;20217;-74
2022/12/22 12:10:41;;;;;;;1.95;1.40;;;22.00;99.90;;;;;;4140378;28;20692;-74
2022/12/22 12:12:52;;;;;;;2.75;1.63;;;22.00;99.90;;;;;;4134291;28;20213;-76
2022/12/22 12:15:07;;;;;;;1.60;1.17;;;22.00;99.90;;;;;;4135795;28;20271;-75
2022/12/22 12:17:20;;;;;;;5.55;1.52;;;22.00;99.90;;;;;;4136216;28;20213;-77
2022/12/22 12:19:41;;;;;;;2.38;1.40;;;22.00;99.90;;;;;;4137888;28;20229;-74
2022/12/22 12:21:50;;;;;;;1.52;1.25;;;22.00;99.90;;;;;;4135726;28;20217;-74
2022/12/22 12:24:07;;;;;;;2.70;1.65;;;22.00;99.90;;;;;;4131554;28;20221;-74
2022/12/22 12:26:17;;;;;;;2.45;1.42;;;22.10;99.90;;;;;;4130033;28;20260;-75
2022/12/22 12:28:30;;;;;;;5.35;1.63;;;22.10;99.90;;;;;;4134926;28;20232;-75
2022/12/22 12:30:41;;;;;;;2.60;1.80;;;22.00;99.90;;;;;;4136317;28;20272;-75
2022/12/22 12:32:48;;;;;;;3.25;1.50;;;22.00;99.90;;;;;;4137411;28;20251;-74
2022/12/22 12:34:57;;;;;;;3.08;1.30;;;22.00;99.90;;;;;;4135778;28;20229;-74
2022/12/22 12:37:08;;;;;;;1.45;1.33;;;22.10;99.90;;;;;;4176162;28;20271;-75
2022/12/22 12:39:16;;;;;;;2.97;1.73;;;22.00;99.90;;;;;;4207790;28;20285;-75
2022/12/22 12:41:27;;;;;;;2.15;1.40;;;22.00;99.90;;;;;;4205177;28;20210;-75
2022/12/22 12:43:30;;;;;;;3.97;1.35;;;22.00;99.90;;;;;;4199533;28;20206;-75
2022/12/22 12:45:35;;;;;;;2.47;1.60;;;22.10;99.90;;;;;;4194330;28;20219;-72
2022/12/22 12:47:38;;;;;;;4.47;1.70;;;22.10;99.90;;;;;;4198906;28;20243;-71
2022/12/22 12:50:00;;;;;;;1.70;1.40;;;22.10;99.90;;;;;;4197132;28;20206;-71
2022/12/22 12:52:04;;;;;;;2.78;1.60;;;22.10;99.90;;;;;;4200774;28;20324;-71
2022/12/22 12:54:37;;;;;;;1.98;1.35;;;22.10;99.90;;;;;;4202392;28;20223;-71
2022/12/22 12:56:55;;;;;;;3.60;1.52;;;22.10;99.90;;;;;;4199272;28;20742;-72
2022/12/22 12:58:58;;;;;;;3.95;1.75;;;22.10;99.90;;;;;;4204533;28;20226;-72
2022/12/22 13:01:01;;;;;;;2.10;1.73;;;22.10;99.90;;;;;;4203979;28;20219;-72
2022/12/22 13:03:08;;;;;;;3.55;1.70;;;22.10;99.90;;;;;;4201660;28;20281;-70
2022/12/22 13:05:31;;;;;;;3.45;1.50;;;22.10;99.90;;;;;;4206778;28;20219;-73
2022/12/22 13:08:06;;;;;;;3.55;1.70;;;22.10;99.90;;;;;;4199559;28;20238;-73
2022/12/22 13:10:19;;;;;;;1.80;1.38;;;22.20;99.90;;;;;;4184154;28;20275;-74
2022/12/22 13:12:34;;;;;;;5.43;1.95;;;22.20;99.90;;;;;;4200317;28;20219;-74
2022/12/22 13:14:55;;;;;;;3.05;1.70;;;22.20;99.90;;;;;;4204158;28;20233;-73
2022/12/22 13:17:31;;;;;;;1.48;1.20;;;22.20;99.90;;;;;;4202893;28;20748;-74
2022/12/22 13:19:33;;;;;;;3.83;1.90;;;22.20;99.90;;;;;;4191341;28;20267;-74
2022/12/22 13:21:41;;;;;;;2.20;1.48;;;22.20;99.90;;;;;;4205070;28;20211;-73
2022/12/22 13:23:50;;;;;;;3.83;1.95;;;22.20;99.90;;;;;;4203169;28;20209;-74
2022/12/22 13:25:57;;;;;;;2.10;1.70;;;22.20;99.90;;;;;;4209246;28;20222;-74
2022/12/22 13:28:00;;;;;;;5.43;1.50;;;22.20;99.90;;;;;;4207993;28;20238;-74
2022/12/22 13:30:02;;;;;;;2.83;1.67;;;22.30;99.90;;;;;;4207396;28;20662;-75
2022/12/22 13:32:21;;;;;;;2.38;1.50;;;22.30;99.90;;;;;;4209442;28;20343;-74
2022/12/22 13:34:39;;;;;;;2.92;1.70;;;22.30;99.90;;;;;;4207407;28;20263;-73
2022/12/22 13:36:43;;;;;;;3.72;1.90;;;22.20;99.90;;;;;;4203372;28;20227;-73
2022/12/22 13:38:47;;;;;;;3.92;1.50;;;22.20;99.90;;;;;;4202837;28;20264;-73
2022/12/22 13:40:49;;;;;;;3.38;1.38;;;22.30;99.90;;;;;;4203329;28;20215;-74
2022/12/22 13:42:54;;;;;;;2.15;1.48;;;22.20;99.90;;;;;;4203001;28;20631;-72
2022/12/22 13:44:57;;;;;;;2.65;1.60;;;22.30;99.90;;;;;;4199272;28;20279;-72
2022/12/22 13:47:04;;;;;;;4.07;1.55;;;22.30;99.90;;;;;;4202363;28;20218;-73
2022/12/22 13:49:09;;;;;;;3.35;1.42;;;22.30;99.90;;;;;;4201896;28;20204;-74
2022/12/22 13:51:18;;;;;;;3.42;1.70;;;22.30;99.90;;;;;;4202097;28;20203;-73
2022/12/22 13:53:30;;;;;;;2.45;1.88;;;22.30;99.90;;;;;;4201405;28;20214;-72
2022/12/22 13:55:35;;;;;;;3.33;1.52;;;22.30;99.90;;;;;;4199105;28;20336;-73
2022/12/22 13:57:39;;;;;;;3.80;1.90;;;22.30;99.90;;;;;;4201652;28;20230;-72
2022/12/22 13:59:44;;;;;;;1.80;1.38;;;22.30;99.90;;;;;;4196015;28;20206;-72
2022/12/22 14:01:49;;;;;;;2.55;1.73;;;22.30;99.90;;;;;;4196400;28;20215;-73
2022/12/22 14:03:56;;;;;;;4.20;2.10;;;22.30;99.90;;;;;;4201080;28;20609;-73
2022/12/22 14:05:58;;;;;;;2.85;1.60;;;22.30;99.90;;;;;;4198951;28;20272;-73
2022/12/22 14:08:03;;;;;;;2.97;1.67;;;22.30;99.90;;;;;;4202095;28;20256;-72
2022/12/22 14:10:06;;;;;;;3.10;1.73;;;22.30;99.90;;;;;;4200198;28;20202;-73
2022/12/22 14:12:14;;;;;;;2.50;1.90;;;22.30;99.90;;;;;;4201166;28;20260;-73
2022/12/22 14:14:19;;;;;;;2.17;1.77;;;22.40;99.90;;;;;;4203508;28;20198;-72
2022/12/22 14:16:21;;;;;;;2.58;1.80;;;22.30;99.90;;;;;;4203644;28;20271;-72
2022/12/22 14:18:25;;;;;;;3.47;1.67;;;22.40;99.90;;;;;;4200609;28;20206;-73
2022/12/22 14:20:32;;;;;;;3.72;1.50;;;22.40;99.90;;;;;;4201769;28;20214;-74
2022/12/22 14:22:37;;;;;;;2.85;1.60;;;22.40;99.90;;;;;;4200703;28;20565;-73
2022/12/22 14:24:44;;;;;;;3.92;2.03;;;22.40;99.90;;;;;;4197426;28;20261;-72
2022/12/22 14:26:47;;;;;;;2.67;1.50;;;22.40;99.90;;;;;;4200935;28;20267;-75
2022/12/22 14:28:53;;;;;;;3.45;1.80;;;22.40;99.90;;;;;;4201908;28;20324;-72
2022/12/22 14:30:58;;;;;;;2.90;1.83;;;22.40;99.90;;;;;;4197784;28;22047;-71
2022/12/22 14:33:16;;;;;;;3.17;1.90;;;22.40;99.90;;;;;;4202456;28;20626;-72
2022/12/22 14:35:29;;;;;;;4.00;1.70;;;22.40;99.90;;;;;;4199368;28;20275;-73
2022/12/22 14:37:32;;;;;;;2.97;1.83;;;22.40;99.90;;;;;;4202814;28;20669;-73
2022/12/22 14:39:34;;;;;;;2.63;1.70;;;22.40;99.90;;;;;;4202352;28;20288;-72